createdAt,value
2023-05-10T00:00:19.102Z,12.96
2023-05-10T00:02:47.286Z,12.90
2023-05-10T00:05:15.313Z,12.86
2023-05-10T00:07:45.710Z,12.81
2023-05-10T00:10:13.991Z,12.74
2023-05-10T00:12:43.825Z,12.72
2023-05-10T00:15:12.435Z,12.74
2023-05-10T00:17:40.523Z,12.73
2023-05-10T00:20:09.478Z,12.63
2023-05-10T00:22:37.481Z,12.61
2023-05-10T00:25:07.176Z,12.65
2023-05-10T00:27:35.208Z,12.64
2023-05-10T00:30:05.109Z,12.63
2023-05-10T00:32:33.122Z,12.59
2023-05-10T00:35:01.087Z,12.54
2023-05-10T00:37:29.092Z,12.54
2023-05-10T00:39:57.162Z,12.55
2023-05-10T00:42:25.145Z,12.54
2023-05-10T00:44:53.182Z,12.56
2023-05-10T00:47:22.890Z,12.54
2023-05-10T00:49:51.004Z,12.44
2023-05-10T00:52:18.976Z,12.40
2023-05-10T00:54:47.152Z,12.43
2023-05-10T00:57:15.238Z,12.37
2023-05-10T00:59:43.323Z,12.34
2023-05-10T01:02:11.588Z,12.24
2023-05-10T01:04:41.634Z,12.11
2023-05-10T01:07:09.626Z,12.01
2023-05-10T01:09:37.675Z,12.10
2023-05-10T01:12:07.890Z,12.06
2023-05-10T01:14:38.167Z,11.97
2023-05-10T01:17:07.653Z,11.93
2023-05-10T01:19:38.659Z,11.85
2023-05-10T01:22:27.278Z,11.81
2023-05-10T01:25:32.684Z,11.72
2023-05-10T01:28:24.072Z,11.67
2023-05-10T01:31:15.909Z,11.60
2023-05-10T01:33:52.324Z,11.63
2023-05-10T01:36:28.844Z,11.58
2023-05-10T01:39:03.415Z,11.56
2023-05-10T01:41:48.341Z,11.53
2023-05-10T01:44:22.657Z,11.50
2023-05-10T01:46:55.283Z,11.52
2023-05-10T01:49:28.486Z,11.54
2023-05-10T01:52:01.431Z,11.46
2023-05-10T01:54:30.845Z,11.42
2023-05-10T01:57:05.178Z,11.41
2023-05-10T01:59:40.188Z,11.32
2023-05-10T02:02:12.456Z,11.35
2023-05-10T02:04:44.068Z,11.28
2023-05-10T02:07:13.616Z,11.26
2023-05-10T02:09:44.632Z,11.22
2023-05-10T02:12:15.280Z,11.19
2023-05-10T02:14:44.354Z,11.16
2023-05-10T02:17:13.929Z,11.11
2023-05-10T02:19:44.254Z,11.10
2023-05-10T02:22:13.109Z,11.09
2023-05-10T02:24:42.228Z,11.13
2023-05-10T02:27:12.138Z,11.15
2023-05-10T02:29:40.813Z,11.08
2023-05-10T02:32:10.629Z,10.97
2023-05-10T02:34:40.197Z,10.99
2023-05-10T02:37:10.470Z,10.99
2023-05-10T02:39:39.447Z,10.95
2023-05-10T02:42:08.327Z,10.88
2023-05-10T02:44:38.171Z,10.90
2023-05-10T02:47:06.374Z,10.85
2023-05-10T02:49:34.788Z,10.78
2023-05-10T02:52:06.685Z,10.77
2023-05-10T02:54:43.428Z,10.72
2023-05-10T02:57:19.111Z,10.67
2023-05-10T02:59:47.393Z,10.69
2023-05-10T03:02:15.352Z,10.68
2023-05-10T03:04:43.314Z,10.62
2023-05-10T03:07:11.700Z,10.63
2023-05-10T03:09:41.660Z,10.59
2023-05-10T03:12:16.046Z,10.64
2023-05-10T03:14:54.959Z,10.64
2023-05-10T03:17:28.430Z,10.58
2023-05-10T03:19:58.319Z,10.57
2023-05-10T03:22:28.476Z,10.53
2023-05-10T03:24:59.706Z,10.55
2023-05-10T03:27:29.751Z,10.54
2023-05-10T03:29:58.459Z,10.55
2023-05-10T03:32:28.126Z,10.53
2023-05-10T03:34:56.187Z,10.50
2023-05-10T03:37:24.144Z,10.43
2023-05-10T03:39:52.176Z,10.47
2023-05-10T03:42:21.926Z,10.47
2023-05-10T03:44:50.464Z,10.48
2023-05-10T03:47:18.428Z,10.47
2023-05-10T03:49:46.384Z,10.51
2023-05-10T03:52:14.358Z,10.41
2023-05-10T03:54:42.309Z,10.47
2023-05-10T03:57:10.603Z,10.51
2023-05-10T03:59:39.925Z,10.49
2023-05-10T04:02:08.339Z,10.56
2023-05-10T04:04:36.371Z,10.60
2023-05-10T04:07:05.023Z,10.57
2023-05-10T04:09:33.602Z,10.62
2023-05-10T04:12:03.292Z,10.66
2023-05-10T04:14:31.317Z,10.67
2023-05-10T04:17:00.758Z,10.69
2023-05-10T04:19:31.549Z,10.70
2023-05-10T04:21:59.770Z,10.84
2023-05-10T04:24:27.820Z,10.92
2023-05-10T04:26:57.792Z,10.98
2023-05-10T04:29:26.043Z,11.08
2023-05-10T04:31:54.407Z,11.16
2023-05-10T04:34:24.063Z,11.14
2023-05-10T04:36:52.022Z,11.20
2023-05-10T04:39:20.039Z,11.22
2023-05-10T04:41:48.061Z,11.16
2023-05-10T04:44:16.142Z,11.17
2023-05-10T04:46:44.184Z,11.11
2023-05-10T04:49:12.738Z,11.18
2023-05-10T04:51:42.046Z,11.13
2023-05-10T04:54:10.010Z,11.10
2023-05-10T04:56:38.066Z,11.16
2023-05-10T04:59:06.069Z,11.17
2023-05-10T05:01:34.192Z,11.16
2023-05-10T05:04:02.421Z,11.22
2023-05-10T05:06:30.557Z,11.23
2023-05-10T05:08:59.873Z,11.34
2023-05-10T05:11:27.829Z,11.41
2023-05-10T05:13:56.344Z,11.51
2023-05-10T05:16:24.515Z,11.56
2023-05-10T05:18:52.516Z,11.64
2023-05-10T05:21:22.405Z,11.69
2023-05-10T05:23:50.529Z,11.73
2023-05-10T05:26:19.880Z,11.81
2023-05-10T05:28:49.734Z,11.90
2023-05-10T05:31:17.777Z,11.96
2023-05-10T05:33:45.885Z,12.07
2023-05-10T05:36:13.921Z,12.14
2023-05-10T05:38:41.987Z,12.21
2023-05-10T05:41:09.996Z,12.25
2023-05-10T05:43:39.334Z,12.31
2023-05-10T05:46:08.677Z,12.43
2023-05-10T05:48:37.062Z,12.50
2023-05-10T05:51:07.151Z,12.54
2023-05-10T05:53:35.883Z,12.56
2023-05-10T05:56:04.653Z,12.66
2023-05-10T05:58:32.728Z,12.73
2023-05-10T06:01:02.266Z,12.76
2023-05-10T06:03:30.350Z,12.73
2023-05-10T06:05:58.408Z,12.82
2023-05-10T06:08:26.779Z,12.91
2023-05-10T06:10:54.799Z,13.00
2023-05-10T06:13:22.845Z,13.08
2023-05-10T06:15:50.909Z,13.18
2023-05-10T06:18:20.254Z,13.33
2023-05-10T06:20:48.389Z,13.45
2023-05-10T06:23:16.552Z,13.52
2023-05-10T06:25:44.543Z,13.65
2023-05-10T06:28:12.547Z,13.81
2023-05-10T06:30:40.556Z,13.82
2023-05-10T06:33:08.638Z,13.88
2023-05-10T06:35:38.132Z,13.91
2023-05-10T06:38:06.186Z,14.06
2023-05-10T06:40:34.389Z,14.09
2023-05-10T06:43:02.448Z,14.11
2023-05-10T06:45:30.536Z,14.17
2023-05-10T06:47:58.562Z,14.15
2023-05-10T06:50:26.733Z,13.99
2023-05-10T06:52:56.438Z,14.16
2023-05-10T06:55:24.663Z,14.22
2023-05-10T06:57:52.664Z,14.29
2023-05-10T07:00:21.791Z,14.29
2023-05-10T07:02:49.929Z,14.41
2023-05-10T07:05:18.338Z,14.36
2023-05-10T07:07:46.573Z,14.31
2023-05-10T07:10:16.078Z,14.45
2023-05-10T07:12:44.313Z,14.51
2023-05-10T07:15:13.292Z,14.44
2023-05-10T07:17:43.233Z,14.69
2023-05-10T07:20:13.947Z,14.73
2023-05-10T07:22:42.015Z,14.72
2023-05-10T07:25:10.456Z,14.70
2023-05-10T07:27:39.867Z,14.74
2023-05-10T07:30:09.266Z,14.80
2023-05-10T07:32:37.426Z,14.92
2023-05-10T07:35:06.534Z,14.96
2023-05-10T07:37:34.546Z,14.81
2023-05-10T07:40:02.989Z,14.92
2023-05-10T07:42:31.023Z,15.12
2023-05-10T07:45:00.407Z,15.34
2023-05-10T07:47:28.566Z,15.49
2023-05-10T07:49:56.562Z,15.47
2023-05-10T07:52:24.527Z,15.46
2023-05-10T07:54:52.537Z,15.52
2023-05-10T07:57:20.705Z,15.35
2023-05-10T07:59:48.693Z,15.54
2023-05-10T08:02:18.031Z,15.77
2023-05-10T08:04:46.557Z,15.52
2023-05-10T08:07:14.710Z,15.68
2023-05-10T08:09:42.669Z,15.87
2023-05-10T08:12:10.836Z,15.92
2023-05-10T08:14:38.876Z,15.98
2023-05-10T08:17:06.997Z,15.94
2023-05-10T08:19:36.343Z,16.08
2023-05-10T08:22:04.284Z,16.13
2023-05-10T08:24:32.321Z,16.15
2023-05-10T08:27:00.325Z,16.15
2023-05-10T08:29:30.400Z,16.18
2023-05-10T08:31:58.624Z,16.11
2023-05-10T08:34:26.826Z,16.24
2023-05-10T08:36:56.330Z,16.18
2023-05-10T08:39:30.245Z,16.15
2023-05-10T08:42:03.498Z,16.20
2023-05-10T08:44:32.976Z,16.02
2023-05-10T08:47:04.543Z,16.07
2023-05-10T08:49:33.833Z,16.21
2023-05-10T08:52:06.349Z,16.31
2023-05-10T08:54:35.335Z,16.56
2023-05-10T08:57:04.073Z,16.56
2023-05-10T08:59:32.324Z,16.40
2023-05-10T09:02:01.024Z,16.59
2023-05-10T09:04:30.117Z,16.73
2023-05-10T09:06:58.777Z,16.72
2023-05-10T09:09:29.787Z,16.63
2023-05-10T09:11:57.804Z,16.61
2023-05-10T09:14:26.996Z,16.76
2023-05-10T09:16:56.215Z,16.93
2023-05-10T09:19:24.310Z,16.93
2023-05-10T09:21:52.309Z,17.10
2023-05-10T09:24:20.442Z,17.17
2023-05-10T09:26:50.502Z,17.28
2023-05-10T09:29:18.557Z,17.36
2023-05-10T09:31:49.187Z,17.33
2023-05-10T09:34:22.000Z,17.35
2023-05-10T09:36:54.793Z,17.39
2023-05-10T09:39:23.066Z,17.42
2023-05-10T09:41:53.815Z,17.40
2023-05-10T09:44:21.840Z,17.42
2023-05-10T09:46:53.719Z,17.54
2023-05-10T09:49:22.838Z,17.56
2023-05-10T09:52:02.444Z,17.37
2023-05-10T09:54:30.686Z,17.30
2023-05-10T09:57:00.108Z,17.08
2023-05-10T09:59:29.069Z,16.92
2023-05-10T10:01:59.447Z,16.86
2023-05-10T10:04:27.710Z,16.91
2023-05-10T10:07:06.842Z,16.86
2023-05-10T10:09:36.075Z,16.84
2023-05-10T10:12:05.936Z,16.88
2023-05-10T10:14:34.172Z,16.60
2023-05-10T10:19:36.304Z,16.66
2023-05-10T10:22:05.177Z,16.62
2023-05-10T10:24:33.519Z,16.43
2023-05-10T10:27:11.254Z,16.41
2023-05-10T10:29:45.736Z,16.25
2023-05-10T10:32:24.406Z,15.89
2023-05-10T10:34:53.003Z,15.58
2023-05-10T10:37:21.376Z,15.40
2023-05-10T10:39:50.605Z,15.03
2023-05-10T10:42:50.872Z,14.86
2023-05-10T10:45:19.226Z,14.81
2023-05-10T10:47:47.452Z,14.61
2023-05-10T10:50:17.123Z,14.37
2023-05-10T10:52:46.376Z,14.30
2023-05-10T10:55:16.080Z,14.29
2023-05-10T10:57:52.011Z,14.05
2023-05-10T11:00:33.981Z,13.96
2023-05-10T11:03:07.357Z,14.07
2023-05-10T11:05:38.904Z,13.95
2023-05-10T11:08:18.675Z,13.94
2023-05-10T11:11:10.817Z,13.98
2023-05-10T11:13:44.594Z,13.99
2023-05-10T11:16:20.933Z,14.01
2023-05-10T11:18:58.686Z,14.14
2023-05-10T11:21:27.047Z,14.21
2023-05-10T11:23:58.227Z,14.24
2023-05-10T11:26:27.320Z,14.35
2023-05-10T11:29:00.169Z,14.38
2023-05-10T11:31:28.720Z,14.42
2023-05-10T11:33:58.272Z,14.50
2023-05-10T11:36:28.288Z,14.67
2023-05-10T11:38:57.323Z,14.73
2023-05-10T11:41:26.533Z,14.71
2023-05-10T11:43:57.269Z,14.80
2023-05-10T11:46:27.747Z,14.94
2023-05-10T11:48:59.347Z,14.84
2023-05-10T11:51:27.548Z,14.79
2023-05-10T11:53:56.994Z,14.94
2023-05-10T11:56:27.050Z,15.18
2023-05-10T11:58:58.134Z,15.19
2023-05-10T12:01:26.984Z,15.32
2023-05-10T12:03:59.696Z,15.29
2023-05-10T12:06:30.058Z,15.39
2023-05-10T12:08:58.036Z,15.27
2023-05-10T12:11:28.276Z,15.07
2023-05-10T12:13:58.221Z,15.14
2023-05-10T12:16:30.436Z,15.10
2023-05-10T12:18:59.714Z,15.11
2023-05-10T12:21:30.244Z,15.03
2023-05-10T12:24:02.306Z,15.03
2023-05-10T12:26:31.044Z,15.17
2023-05-10T12:31:54.629Z,15.06
2023-05-10T12:34:27.337Z,15.04
2023-05-10T12:36:56.372Z,15.14
2023-05-10T12:39:24.463Z,14.98
2023-05-10T12:41:52.924Z,15.11
2023-05-10T12:44:21.020Z,15.07
2023-05-10T12:46:49.196Z,15.16
2023-05-10T12:49:19.969Z,15.31
2023-05-10T12:51:47.980Z,15.52
2023-05-10T12:54:16.063Z,15.60
2023-05-10T12:56:44.018Z,15.68
2023-05-10T12:59:11.998Z,15.91
2023-05-10T13:01:40.159Z,16.21
2023-05-10T13:04:08.241Z,16.31
2023-05-10T13:06:37.640Z,16.49
2023-05-10T13:09:05.671Z,16.69
2023-05-10T13:11:33.864Z,16.68
2023-05-10T13:14:01.935Z,16.67
2023-05-10T13:16:29.943Z,16.72
2023-05-10T13:18:58.046Z,16.72
2023-05-10T13:21:26.782Z,16.72
2023-05-10T13:23:56.566Z,16.63
2023-05-10T13:26:24.621Z,16.75
2023-05-10T13:28:52.896Z,16.94
2023-05-10T13:31:21.598Z,17.09
2023-05-10T13:33:49.676Z,17.32
2023-05-10T13:36:17.679Z,17.30
2023-05-10T13:38:45.693Z,17.29
2023-05-10T13:41:15.086Z,17.32
2023-05-10T13:43:43.248Z,17.66
2023-05-10T13:46:11.503Z,18.26
2023-05-10T13:48:39.504Z,18.70
2023-05-10T13:51:07.629Z,19.58
2023-05-10T13:53:35.724Z,19.71
2023-05-10T13:56:04.257Z,20.24
2023-05-10T13:58:33.780Z,19.98
2023-05-10T14:01:01.795Z,19.38
2023-05-10T14:03:30.006Z,19.13
2023-05-10T14:05:58.238Z,18.64
2023-05-10T14:08:27.959Z,18.73
2023-05-10T14:10:57.344Z,18.45
2023-05-10T14:13:25.841Z,18.32
2023-05-10T14:15:56.631Z,17.90
2023-05-10T14:18:24.784Z,17.63
2023-05-10T14:20:52.847Z,17.70
2023-05-10T14:23:25.017Z,17.26
2023-05-10T14:25:53.022Z,17.12
2023-05-10T14:28:21.742Z,17.11
2023-05-10T14:30:49.825Z,17.21
2023-05-10T14:33:20.166Z,16.88
2023-05-10T14:35:48.608Z,17.04
2023-05-10T14:38:16.750Z,17.07
2023-05-10T14:40:45.029Z,16.97
2023-05-10T14:43:13.025Z,17.03
2023-05-10T14:45:41.044Z,16.79
2023-05-10T14:48:12.242Z,16.85
2023-05-10T14:50:41.670Z,16.90
2023-05-10T14:53:09.667Z,16.94
2023-05-10T14:55:37.937Z,16.91
2023-05-10T14:58:05.943Z,17.22
2023-05-10T15:00:34.104Z,17.03
2023-05-10T15:03:02.568Z,16.83
2023-05-10T15:05:30.972Z,16.87
2023-05-10T15:08:00.862Z,16.59
2023-05-10T15:10:28.846Z,16.54
2023-05-10T15:12:56.887Z,16.70
2023-05-10T15:15:25.082Z,16.68
2023-05-10T15:17:53.122Z,16.97
2023-05-10T15:20:21.168Z,17.21
2023-05-10T15:22:49.181Z,17.49
2023-05-10T15:25:18.821Z,17.83
2023-05-10T15:27:46.924Z,17.62
2023-05-10T15:30:15.415Z,18.21
2023-05-10T15:32:43.912Z,18.59
2023-05-10T15:35:12.457Z,18.32
2023-05-10T15:37:40.532Z,18.19
2023-05-10T15:40:09.290Z,17.91
2023-05-10T15:42:38.577Z,17.68
2023-05-10T15:45:07.453Z,17.58
2023-05-10T15:47:35.547Z,17.58
2023-05-10T15:50:03.702Z,17.60
2023-05-10T15:52:31.777Z,17.54
2023-05-10T15:54:59.744Z,17.87
2023-05-10T15:57:27.825Z,17.80
2023-05-10T15:59:57.930Z,17.97
2023-05-10T16:02:26.108Z,17.68
2023-05-10T16:04:54.163Z,17.55
2023-05-10T16:07:22.130Z,17.57
2023-05-10T16:09:50.715Z,17.48
2023-05-10T16:12:18.818Z,17.07
2023-05-10T16:14:47.522Z,17.02
2023-05-10T16:17:17.096Z,16.83
2023-05-10T16:19:45.128Z,16.59
2023-05-10T16:22:13.156Z,16.48
2023-05-10T16:24:41.289Z,16.43
2023-05-10T16:27:09.338Z,16.30
2023-05-10T16:29:37.361Z,16.29
2023-05-10T16:32:05.924Z,16.09
2023-05-10T16:34:35.233Z,16.13
2023-05-10T16:37:03.282Z,15.87
2023-05-10T16:39:31.278Z,15.94
2023-05-10T16:41:59.409Z,15.70
2023-05-10T16:44:27.430Z,15.45
2023-05-10T16:46:55.973Z,15.30
2023-05-10T16:49:26.140Z,15.32
2023-05-10T16:51:55.767Z,15.17
2023-05-10T16:54:23.804Z,14.97
2023-05-10T16:56:51.861Z,14.96
2023-05-10T16:59:19.826Z,14.97
2023-05-10T17:01:48.162Z,14.89
2023-05-10T17:04:16.475Z,14.83
2023-05-10T17:06:44.512Z,14.84
2023-05-10T17:09:13.933Z,14.92
2023-05-10T17:11:42.650Z,14.97
2023-05-10T17:14:10.948Z,14.93
2023-05-10T17:16:39.001Z,14.99
2023-05-10T17:19:07.177Z,14.94
2023-05-10T17:21:35.224Z,14.75
2023-05-10T17:24:03.277Z,14.95
2023-05-10T17:26:32.670Z,14.96
2023-05-10T17:29:00.706Z,14.96
2023-05-10T17:31:29.782Z,15.01
2023-05-10T17:33:57.810Z,15.00
2023-05-10T17:36:25.901Z,14.94
2023-05-10T17:38:53.848Z,14.95
2023-05-10T17:41:21.828Z,14.80
2023-05-10T17:43:51.324Z,14.85
2023-05-10T17:46:19.352Z,14.91
2023-05-10T17:48:47.422Z,14.79
2023-05-10T17:51:15.569Z,14.79
2023-05-10T17:53:44.569Z,14.78
2023-05-10T17:56:12.642Z,14.73
2023-05-10T17:58:40.655Z,14.76
2023-05-10T18:01:10.211Z,14.73
2023-05-10T18:03:38.299Z,14.67
2023-05-10T18:06:07.196Z,14.54
2023-05-10T18:08:35.495Z,14.16
2023-05-10T18:11:03.569Z,13.86
2023-05-10T18:13:32.027Z,13.67
2023-05-10T18:16:00.029Z,13.50
2023-05-10T18:18:29.475Z,13.32
2023-05-10T18:20:58.267Z,13.27
2023-05-10T18:23:26.422Z,13.18
2023-05-10T18:25:54.469Z,13.15
2023-05-10T18:28:22.467Z,12.93
2023-05-10T18:30:50.608Z,12.90
2023-05-10T18:33:18.679Z,12.82
2023-05-10T18:35:48.123Z,12.68
2023-05-10T18:38:16.312Z,12.68
2023-05-10T18:40:44.377Z,12.64
2023-05-10T18:43:12.416Z,12.47
2023-05-10T18:45:40.540Z,12.37
2023-05-10T18:48:08.850Z,12.33
2023-05-10T18:50:36.904Z,12.25
2023-05-10T18:53:06.280Z,12.31
2023-05-10T18:55:34.361Z,12.22
2023-05-10T18:58:02.387Z,12.16
2023-05-10T19:00:30.407Z,12.05
2023-05-10T19:02:58.524Z,12.05
2023-05-10T19:05:30.151Z,11.95
2023-05-10T19:07:58.478Z,11.97
2023-05-10T19:10:27.837Z,11.92
2023-05-10T19:12:55.876Z,11.84
2023-05-10T19:15:24.158Z,11.92
2023-05-10T19:17:52.677Z,11.92
2023-05-10T19:20:21.687Z,11.93
2023-05-10T19:23:08.647Z,11.84
2023-05-10T19:25:39.439Z,11.82
2023-05-10T19:28:09.635Z,11.88
2023-05-10T19:30:37.880Z,11.83
2023-05-10T19:33:05.950Z,11.88
2023-05-10T19:35:34.016Z,11.91
2023-05-10T19:38:02.189Z,11.91
2023-05-10T19:40:30.188Z,11.89
2023-05-10T19:43:00.383Z,11.87
2023-05-10T19:45:28.489Z,11.80
2023-05-10T19:47:56.669Z,11.74
2023-05-10T19:50:24.815Z,11.73
2023-05-10T19:52:52.808Z,11.64
2023-05-10T19:55:28.840Z,11.61
2023-05-10T19:57:57.080Z,11.63
2023-05-10T20:00:27.674Z,11.58
2023-05-10T20:02:56.202Z,11.56
2023-05-10T20:05:24.785Z,11.52
2023-05-10T20:07:52.794Z,11.56
2023-05-10T20:10:21.639Z,11.52
2023-05-10T20:12:52.352Z,11.52
2023-05-10T20:15:21.852Z,11.53
2023-05-10T20:17:52.706Z,11.57
2023-05-10T20:20:21.418Z,11.54
2023-05-10T20:22:50.009Z,11.56
2023-05-10T20:25:18.971Z,11.54
2023-05-10T20:27:46.993Z,11.53
2023-05-10T20:30:15.338Z,11.47
2023-05-10T20:32:43.750Z,11.40
2023-05-10T20:35:13.203Z,11.28
2023-05-10T20:37:41.209Z,11.30
2023-05-10T20:40:11.037Z,11.27
2023-05-10T20:42:39.121Z,11.17
2023-05-10T20:45:08.232Z,11.12
2023-05-10T20:47:36.807Z,11.17
2023-05-10T20:50:05.261Z,11.16
2023-05-10T20:52:34.651Z,11.09
2023-05-10T20:55:02.699Z,11.11
2023-05-10T20:57:30.695Z,11.14
2023-05-10T20:59:58.731Z,11.11
2023-05-10T21:02:26.864Z,11.05
2023-05-10T21:04:57.139Z,11.03
2023-05-10T21:07:26.175Z,10.98
2023-05-10T21:09:55.556Z,11.00
2023-05-10T21:12:23.571Z,11.03
2023-05-10T21:14:51.825Z,11.07
2023-05-10T21:17:20.314Z,11.08
2023-05-10T21:19:48.517Z,11.01
2023-05-10T21:22:16.562Z,11.05
2023-05-10T21:24:44.832Z,11.04
2023-05-10T21:27:14.272Z,11.08
2023-05-10T21:29:42.234Z,11.12
2023-05-10T21:32:10.597Z,11.11
2023-05-10T21:34:38.629Z,11.10
2023-05-10T21:37:06.814Z,11.09
2023-05-10T21:39:34.817Z,11.15
2023-05-10T21:42:03.520Z,11.13
2023-05-10T21:44:32.896Z,11.14
2023-05-10T21:47:00.918Z,11.15
2023-05-10T21:49:28.883Z,11.15
2023-05-10T21:51:56.880Z,11.21
2023-05-10T21:54:24.870Z,11.20
2023-05-10T21:56:52.862Z,11.19
2023-05-10T21:59:21.397Z,11.09
2023-05-10T22:01:50.843Z,11.06
2023-05-10T22:04:18.870Z,11.10
2023-05-10T22:06:46.930Z,11.10
2023-05-10T22:09:14.882Z,11.14
2023-05-10T22:11:42.932Z,11.11
2023-05-10T22:14:11.065Z,11.05
2023-05-10T22:16:39.099Z,11.07
2023-05-10T22:19:08.560Z,11.08
2023-05-10T22:21:36.631Z,11.07
2023-05-10T22:24:05.111Z,11.14
2023-05-10T22:26:33.109Z,11.08
2023-05-10T22:29:01.088Z,11.10
2023-05-10T22:31:29.118Z,11.10
2023-05-10T22:33:57.159Z,11.11
2023-05-10T22:36:26.491Z,11.06
2023-05-10T22:38:54.536Z,11.04
2023-05-10T22:41:22.607Z,11.05
2023-05-10T22:43:50.781Z,11.02
2023-05-10T22:46:18.839Z,11.04
2023-05-10T22:48:46.861Z,11.06
2023-05-10T22:51:14.844Z,10.98
2023-05-10T22:53:44.170Z,10.95
2023-05-10T22:56:12.278Z,10.92
2023-05-10T22:58:40.333Z,10.92
2023-05-10T23:01:08.360Z,10.95
2023-05-10T23:03:36.724Z,10.91
2023-05-10T23:06:05.345Z,10.89
2023-05-10T23:08:33.300Z,10.88
2023-05-10T23:11:02.649Z,10.89
2023-05-10T23:13:30.860Z,10.92
2023-05-10T23:15:58.858Z,10.95
2023-05-10T23:18:27.000Z,10.90
2023-05-10T23:20:54.959Z,10.92
2023-05-10T23:23:23.070Z,10.84
2023-05-10T23:25:51.388Z,10.82
2023-05-10T23:28:20.767Z,10.82
2023-05-10T23:30:48.753Z,10.81
2023-05-10T23:33:16.809Z,10.84
2023-05-10T23:35:44.810Z,10.82
2023-05-10T23:38:12.762Z,10.81
2023-05-10T23:40:40.712Z,10.84
2023-05-10T23:43:08.954Z,10.84
2023-05-10T23:45:38.274Z,10.85
2023-05-10T23:50:37.135Z,10.71
2023-05-10T23:53:05.128Z,10.80
2023-05-10T23:55:33.115Z,10.81
2023-05-10T23:58:01.179Z,10.83
